sensor_id;sensor_type;location;lat;lon;timestamp;P1;durP1;ratioP1;P2;durP2;ratioP2
3891;SDS011;1961;48.194;16.370;2022-11-20T00:00:16;67.60;;;19.85;;
3891;SDS011;1961;48.194;16.370;2022-11-20T00:02:42;65.65;;;19.25;;
3891;SDS011;1961;48.194;16.370;2022-11-20T00:05:09;72.65;;;21.15;;
3891;SDS011;1961;48.194;16.370;2022-11-20T00:07:35;65.05;;;18.92;;
3891;SDS011;1961;48.194;16.370;2022-11-20T00:10:01;63.15;;;19.27;;
3891;SDS011;1961;48.194;16.370;2022-11-20T00:12:27;68.07;;;19.27;;
3891;SDS011;1961;48.194;16.370;2022-11-20T00:14:53;68.05;;;19.90;;
3891;SDS011;1961;48.194;16.370;2022-11-20T00:17:20;70.10;;;19.77;;
3891;SDS011;1961;48.194;16.370;2022-11-20T00:19:46;65.60;;;18.55;;
3891;SDS011;1961;48.194;16.370;2022-11-20T00:22:12;64.88;;;17.50;;
3891;SDS011;1961;48.194;16.370;2022-11-20T00:24:39;67.95;;;19.45;;
3891;SDS011;1961;48.194;16.370;2022-11-20T00:27:06;69.57;;;19.10;;
3891;SDS011;1961;48.194;16.370;2022-11-20T00:29:32;67.90;;;18.40;;
3891;SDS011;1961;48.194;16.370;2022-11-20T00:32:01;66.85;;;17.42;;
3891;SDS011;1961;48.194;16.370;2022-11-20T00:34:27;66.07;;;19.33;;
3891;SDS011;1961;48.194;16.370;2022-11-20T00:36:53;65.68;;;18.38;;
3891;SDS011;1961;48.194;16.370;2022-11-20T00:39:19;64.50;;;19.10;;
3891;SDS011;1961;48.194;16.370;2022-11-20T00:41:45;64.03;;;19.33;;
3891;SDS011;1961;48.194;16.370;2022-11-20T00:44:11;62.38;;;16.92;;
3891;SDS011;1961;48.194;16.370;2022-11-20T00:46:38;64.78;;;19.08;;
3891;SDS011;1961;48.194;16.370;2022-11-20T00:49:04;65.35;;;18.42;;
3891;SDS011;1961;48.194;16.370;2022-11-20T00:51:30;62.25;;;17.27;;
3891;SDS011;1961;48.194;16.370;2022-11-20T00:53:57;61.80;;;18.10;;
3891;SDS011;1961;48.194;16.370;2022-11-20T00:56:25;63.00;;;19.05;;
3891;SDS011;1961;48.194;16.370;2022-11-20T00:58:51;67.70;;;18.65;;
3891;SDS011;1961;48.194;16.370;2022-11-20T01:01:19;64.93;;;18.70;;
3891;SDS011;1961;48.194;16.370;2022-11-20T01:03:49;63.53;;;19.95;;
3891;SDS011;1961;48.194;16.370;2022-11-20T01:06:16;64.28;;;18.73;;
3891;SDS011;1961;48.194;16.370;2022-11-20T01:08:43;65.47;;;19.63;;
3891;SDS011;1961;48.194;16.370;2022-11-20T01:11:14;72.00;;;20.25;;
3891;SDS011;1961;48.194;16.370;2022-11-20T01:13:40;67.18;;;18.65;;
3891;SDS011;1961;48.194;16.370;2022-11-20T01:16:11;66.05;;;18.50;;
3891;SDS011;1961;48.194;16.370;2022-11-20T01:18:38;67.97;;;21.23;;
3891;SDS011;1961;48.194;16.370;2022-11-20T01:21:06;65.85;;;19.30;;
3891;SDS011;1961;48.194;16.370;2022-11-20T01:23:33;65.53;;;19.98;;
3891;SDS011;1961;48.194;16.370;2022-11-20T01:26:04;64.82;;;18.45;;
3891;SDS011;1961;48.194;16.370;2022-11-20T01:28:30;67.82;;;19.73;;
3891;SDS011;1961;48.194;16.370;2022-11-20T01:30:57;63.60;;;18.90;;
3891;SDS011;1961;48.194;16.370;2022-11-20T01:33:23;68.30;;;21.08;;
3891;SDS011;1961;48.194;16.370;2022-11-20T01:35:49;64.68;;;19.67;;
3891;SDS011;1961;48.194;16.370;2022-11-20T01:38:16;67.68;;;19.25;;
3891;SDS011;1961;48.194;16.370;2022-11-20T01:40:42;63.20;;;17.92;;
3891;SDS011;1961;48.194;16.370;2022-11-20T01:43:18;65.20;;;19.73;;
3891;SDS011;1961;48.194;16.370;2022-11-20T01:46:01;69.15;;;19.70;;
3891;SDS011;1961;48.194;16.370;2022-11-20T01:48:31;65.72;;;19.25;;
3891;SDS011;1961;48.194;16.370;2022-11-20T01:50:58;65.38;;;19.45;;
3891;SDS011;1961;48.194;16.370;2022-11-20T01:53:25;64.13;;;20.23;;
3891;SDS011;1961;48.194;16.370;2022-11-20T01:55:53;67.75;;;20.00;;
3891;SDS011;1961;48.194;16.370;2022-11-20T01:58:22;66.75;;;19.10;;
3891;SDS011;1961;48.194;16.370;2022-11-20T02:00:49;69.57;;;19.35;;
3891;SDS011;1961;48.194;16.370;2022-11-20T02:03:18;66.03;;;20.00;;
3891;SDS011;1961;48.194;16.370;2022-11-20T02:06:05;64.22;;;20.05;;
3891;SDS011;1961;48.194;16.370;2022-11-20T02:08:34;62.95;;;17.85;;
3891;SDS011;1961;48.194;16.370;2022-11-20T02:11:01;66.07;;;19.67;;
3891;SDS011;1961;48.194;16.370;2022-11-20T02:13:27;69.53;;;20.83;;
3891;SDS011;1961;48.194;16.370;2022-11-20T02:16:16;65.85;;;20.50;;
3891;SDS011;1961;48.194;16.370;2022-11-20T02:18:43;66.32;;;20.30;;
3891;SDS011;1961;48.194;16.370;2022-11-20T02:23:38;67.72;;;19.42;;
3891;SDS011;1961;48.194;16.370;2022-11-20T02:26:05;66.68;;;19.23;;
3891;SDS011;1961;48.194;16.370;2022-11-20T02:28:32;66.68;;;20.08;;
3891;SDS011;1961;48.194;16.370;2022-11-20T02:31:00;64.88;;;19.00;;
3891;SDS011;1961;48.194;16.370;2022-11-20T02:33:26;69.93;;;20.13;;
3891;SDS011;1961;48.194;16.370;2022-11-20T02:35:52;68.30;;;19.60;;
3891;SDS011;1961;48.194;16.370;2022-11-20T02:38:18;66.22;;;20.67;;
3891;SDS011;1961;48.194;16.370;2022-11-20T02:40:45;67.22;;;19.63;;
3891;SDS011;1961;48.194;16.370;2022-11-20T02:43:11;67.10;;;18.60;;
3891;SDS011;1961;48.194;16.370;2022-11-20T02:45:37;67.88;;;18.92;;
3891;SDS011;1961;48.194;16.370;2022-11-20T02:48:05;64.80;;;19.50;;
3891;SDS011;1961;48.194;16.370;2022-11-20T02:50:32;65.13;;;19.17;;
3891;SDS011;1961;48.194;16.370;2022-11-20T02:52:59;72.75;;;20.60;;
3891;SDS011;1961;48.194;16.370;2022-11-20T02:55:25;64.72;;;20.20;;
3891;SDS011;1961;48.194;16.370;2022-11-20T02:57:51;66.50;;;19.85;;
3891;SDS011;1961;48.194;16.370;2022-11-20T03:00:17;65.68;;;18.63;;
3891;SDS011;1961;48.194;16.370;2022-11-20T03:02:44;62.28;;;19.52;;
3891;SDS011;1961;48.194;16.370;2022-11-20T03:05:10;65.90;;;20.15;;
3891;SDS011;1961;48.194;16.370;2022-11-20T03:07:36;66.97;;;19.05;;
3891;SDS011;1961;48.194;16.370;2022-11-20T03:10:03;68.60;;;19.65;;
3891;SDS011;1961;48.194;16.370;2022-11-20T03:12:30;66.85;;;20.05;;
3891;SDS011;1961;48.194;16.370;2022-11-20T03:14:56;66.15;;;19.75;;
3891;SDS011;1961;48.194;16.370;2022-11-20T03:17:22;63.25;;;19.48;;
3891;SDS011;1961;48.194;16.370;2022-11-20T03:19:48;67.32;;;20.70;;
3891;SDS011;1961;48.194;16.370;2022-11-20T03:22:14;63.15;;;17.77;;
3891;SDS011;1961;48.194;16.370;2022-11-20T03:24:41;65.85;;;19.45;;
3891;SDS011;1961;48.194;16.370;2022-11-20T03:27:07;68.30;;;20.38;;
3891;SDS011;1961;48.194;16.370;2022-11-20T03:29:34;63.65;;;19.08;;
3891;SDS011;1961;48.194;16.370;2022-11-20T03:32:01;65.88;;;19.92;;
3891;SDS011;1961;48.194;16.370;2022-11-20T03:34:27;69.50;;;20.05;;
3891;SDS011;1961;48.194;16.370;2022-11-20T03:36:53;66.68;;;18.30;;
3891;SDS011;1961;48.194;16.370;2022-11-20T03:39:20;66.40;;;20.83;;
3891;SDS011;1961;48.194;16.370;2022-11-20T03:41:46;70.30;;;21.50;;
3891;SDS011;1961;48.194;16.370;2022-11-20T03:44:12;68.63;;;19.88;;
3891;SDS011;1961;48.194;16.370;2022-11-20T03:46:38;71.82;;;21.70;;
3891;SDS011;1961;48.194;16.370;2022-11-20T03:49:05;67.05;;;20.33;;
3891;SDS011;1961;48.194;16.370;2022-11-20T03:51:32;67.05;;;18.83;;
3891;SDS011;1961;48.194;16.370;2022-11-20T03:54:00;74.22;;;21.20;;
3891;SDS011;1961;48.194;16.370;2022-11-20T03:56:30;66.93;;;18.83;;
3891;SDS011;1961;48.194;16.370;2022-11-20T03:58:57;67.03;;;20.27;;
3891;SDS011;1961;48.194;16.370;2022-11-20T04:01:29;62.80;;;19.10;;
3891;SDS011;1961;48.194;16.370;2022-11-20T04:03:56;67.18;;;19.85;;
3891;SDS011;1961;48.194;16.370;2022-11-20T04:06:24;65.35;;;20.50;;
3891;SDS011;1961;48.194;16.370;2022-11-20T04:08:50;63.80;;;17.73;;
3891;SDS011;1961;48.194;16.370;2022-11-20T04:11:18;64.82;;;20.17;;
3891;SDS011;1961;48.194;16.370;2022-11-20T04:13:49;65.78;;;20.08;;
3891;SDS011;1961;48.194;16.370;2022-11-20T04:16:16;67.93;;;20.42;;
3891;SDS011;1961;48.194;16.370;2022-11-20T04:18:43;61.95;;;19.80;;
3891;SDS011;1961;48.194;16.370;2022-11-20T04:21:09;68.97;;;19.92;;
3891;SDS011;1961;48.194;16.370;2022-11-20T04:23:35;60.67;;;18.00;;
3891;SDS011;1961;48.194;16.370;2022-11-20T04:26:06;62.58;;;19.38;;
3891;SDS011;1961;48.194;16.370;2022-11-20T04:28:32;65.18;;;18.35;;
3891;SDS011;1961;48.194;16.370;2022-11-20T04:31:09;63.75;;;19.23;;
3891;SDS011;1961;48.194;16.370;2022-11-20T04:33:36;68.07;;;20.30;;
3891;SDS011;1961;48.194;16.370;2022-11-20T04:36:12;67.40;;;19.90;;
3891;SDS011;1961;48.194;16.370;2022-11-20T04:38:39;68.53;;;20.45;;
3891;SDS011;1961;48.194;16.370;2022-11-20T04:41:06;64.45;;;18.77;;
3891;SDS011;1961;48.194;16.370;2022-11-20T04:43:33;70.65;;;19.30;;
3891;SDS011;1961;48.194;16.370;2022-11-20T04:46:00;68.35;;;20.25;;
3891;SDS011;1961;48.194;16.370;2022-11-20T04:48:28;65.28;;;19.45;;
3891;SDS011;1961;48.194;16.370;2022-11-20T04:50:55;65.55;;;20.52;;
3891;SDS011;1961;48.194;16.370;2022-11-20T04:53:21;65.65;;;19.95;;
3891;SDS011;1961;48.194;16.370;2022-11-20T04:55:48;69.60;;;21.05;;
3891;SDS011;1961;48.194;16.370;2022-11-20T04:58:15;64.65;;;19.58;;
3891;SDS011;1961;48.194;16.370;2022-11-20T05:00:41;69.60;;;22.35;;
3891;SDS011;1961;48.194;16.370;2022-11-20T05:03:07;65.35;;;18.33;;
3891;SDS011;1961;48.194;16.370;2022-11-20T05:05:34;66.38;;;19.75;;
3891;SDS011;1961;48.194;16.370;2022-11-20T05:08:01;70.18;;;21.42;;
3891;SDS011;1961;48.194;16.370;2022-11-20T05:10:27;68.20;;;20.42;;
3891;SDS011;1961;48.194;16.370;2022-11-20T05:12:53;66.22;;;20.25;;
3891;SDS011;1961;48.194;16.370;2022-11-20T05:15:19;73.18;;;21.00;;
3891;SDS011;1961;48.194;16.370;2022-11-20T05:17:49;70.65;;;20.45;;
3891;SDS011;1961;48.194;16.370;2022-11-20T05:20:16;68.97;;;18.90;;
3891;SDS011;1961;48.194;16.370;2022-11-20T05:22:42;70.72;;;21.60;;
3891;SDS011;1961;48.194;16.370;2022-11-20T05:25:08;67.95;;;19.90;;
3891;SDS011;1961;48.194;16.370;2022-11-20T05:27:35;64.07;;;20.20;;
3891;SDS011;1961;48.194;16.370;2022-11-20T05:30:01;73.63;;;21.45;;
3891;SDS011;1961;48.194;16.370;2022-11-20T05:32:27;69.28;;;20.40;;
3891;SDS011;1961;48.194;16.370;2022-11-20T05:34:53;66.32;;;20.58;;
3891;SDS011;1961;48.194;16.370;2022-11-20T05:37:21;67.38;;;18.60;;
3891;SDS011;1961;48.194;16.370;2022-11-20T05:39:47;65.55;;;19.45;;
3891;SDS011;1961;48.194;16.370;2022-11-20T05:42:13;65.07;;;18.90;;
3891;SDS011;1961;48.194;16.370;2022-11-20T05:44:56;66.80;;;19.75;;
3891;SDS011;1961;48.194;16.370;2022-11-20T05:47:22;67.43;;;20.65;;
3891;SDS011;1961;48.194;16.370;2022-11-20T05:49:48;65.03;;;18.73;;
3891;SDS011;1961;48.194;16.370;2022-11-20T05:52:16;66.95;;;20.42;;
3891;SDS011;1961;48.194;16.370;2022-11-20T05:54:42;68.38;;;18.83;;
3891;SDS011;1961;48.194;16.370;2022-11-20T05:57:08;65.90;;;19.98;;
3891;SDS011;1961;48.194;16.370;2022-11-20T05:59:34;63.17;;;18.70;;
3891;SDS011;1961;48.194;16.370;2022-11-20T06:02:00;66.35;;;19.85;;
3891;SDS011;1961;48.194;16.370;2022-11-20T06:04:26;69.32;;;20.73;;
3891;SDS011;1961;48.194;16.370;2022-11-20T06:06:52;67.65;;;20.15;;
3891;SDS011;1961;48.194;16.370;2022-11-20T06:09:18;60.95;;;17.83;;
3891;SDS011;1961;48.194;16.370;2022-11-20T06:11:45;61.58;;;18.80;;
3891;SDS011;1961;48.194;16.370;2022-11-20T06:14:11;62.15;;;18.25;;
3891;SDS011;1961;48.194;16.370;2022-11-20T06:16:37;65.43;;;19.17;;
3891;SDS011;1961;48.194;16.370;2022-11-20T06:19:03;67.40;;;20.30;;
3891;SDS011;1961;48.194;16.370;2022-11-20T06:21:29;64.38;;;17.98;;
3891;SDS011;1961;48.194;16.370;2022-11-20T06:23:56;68.50;;;21.17;;
3891;SDS011;1961;48.194;16.370;2022-11-20T06:26:22;64.90;;;20.45;;
3891;SDS011;1961;48.194;16.370;2022-11-20T06:28:49;65.53;;;19.52;;
3891;SDS011;1961;48.194;16.370;2022-11-20T06:31:16;66.43;;;20.52;;
3891;SDS011;1961;48.194;16.370;2022-11-20T06:33:43;70.50;;;21.45;;
3891;SDS011;1961;48.194;16.370;2022-11-20T06:36:11;69.90;;;22.00;;
3891;SDS011;1961;48.194;16.370;2022-11-20T06:38:38;70.57;;;21.63;;
3891;SDS011;1961;48.194;16.370;2022-11-20T06:41:05;67.40;;;20.00;;
3891;SDS011;1961;48.194;16.370;2022-11-20T06:43:31;66.60;;;20.20;;
3891;SDS011;1961;48.194;16.370;2022-11-20T06:45:58;64.03;;;19.50;;
3891;SDS011;1961;48.194;16.370;2022-11-20T06:48:27;68.05;;;19.52;;
3891;SDS011;1961;48.194;16.370;2022-11-20T06:50:54;65.15;;;20.58;;
3891;SDS011;1961;48.194;16.370;2022-11-20T06:53:20;66.95;;;21.00;;
3891;SDS011;1961;48.194;16.370;2022-11-20T06:55:47;66.82;;;19.25;;
3891;SDS011;1961;48.194;16.370;2022-11-20T06:58:14;67.35;;;20.80;;
3891;SDS011;1961;48.194;16.370;2022-11-20T07:00:40;72.72;;;20.77;;
3891;SDS011;1961;48.194;16.370;2022-11-20T07:03:07;70.43;;;19.90;;
3891;SDS011;1961;48.194;16.370;2022-11-20T07:05:34;67.93;;;20.30;;
3891;SDS011;1961;48.194;16.370;2022-11-20T07:08:01;66.95;;;20.90;;
3891;SDS011;1961;48.194;16.370;2022-11-20T07:10:27;69.22;;;20.45;;
3891;SDS011;1961;48.194;16.370;2022-11-20T07:12:54;70.28;;;20.63;;
3891;SDS011;1961;48.194;16.370;2022-11-20T07:15:21;64.25;;;19.25;;
3891;SDS011;1961;48.194;16.370;2022-11-20T07:17:48;68.85;;;20.50;;
3891;SDS011;1961;48.194;16.370;2022-11-20T07:20:14;71.90;;;21.92;;
3891;SDS011;1961;48.194;16.370;2022-11-20T07:22:40;65.25;;;19.83;;
3891;SDS011;1961;48.194;16.370;2022-11-20T07:25:07;73.07;;;22.10;;
3891;SDS011;1961;48.194;16.370;2022-11-20T07:27:33;73.20;;;22.20;;
3891;SDS011;1961;48.194;16.370;2022-11-20T07:29:59;69.75;;;21.35;;
3891;SDS011;1961;48.194;16.370;2022-11-20T07:32:26;70.60;;;21.08;;
3891;SDS011;1961;48.194;16.370;2022-11-20T07:34:52;67.55;;;20.33;;
3891;SDS011;1961;48.194;16.370;2022-11-20T07:37:18;72.13;;;22.17;;
3891;SDS011;1961;48.194;16.370;2022-11-20T07:39:44;66.90;;;19.75;;
3891;SDS011;1961;48.194;16.370;2022-11-20T07:42:10;70.60;;;22.05;;
3891;SDS011;1961;48.194;16.370;2022-11-20T07:44:39;69.28;;;20.65;;
3891;SDS011;1961;48.194;16.370;2022-11-20T07:47:06;69.57;;;22.70;;
3891;SDS011;1961;48.194;16.370;2022-11-20T07:49:32;72.25;;;21.38;;
3891;SDS011;1961;48.194;16.370;2022-11-20T07:51:58;68.50;;;20.98;;
3891;SDS011;1961;48.194;16.370;2022-11-20T07:54:24;69.13;;;20.23;;
3891;SDS011;1961;48.194;16.370;2022-11-20T07:56:50;70.15;;;21.17;;
3891;SDS011;1961;48.194;16.370;2022-11-20T07:59:17;65.93;;;19.83;;
3891;SDS011;1961;48.194;16.370;2022-11-20T08:01:43;71.07;;;21.42;;
3891;SDS011;1961;48.194;16.370;2022-11-20T08:04:09;69.85;;;22.85;;
3891;SDS011;1961;48.194;16.370;2022-11-20T08:06:36;78.15;;;23.77;;
3891;SDS011;1961;48.194;16.370;2022-11-20T08:09:02;72.30;;;21.67;;
3891;SDS011;1961;48.194;16.370;2022-11-20T08:11:29;71.28;;;21.50;;
3891;SDS011;1961;48.194;16.370;2022-11-20T08:14:14;73.95;;;23.80;;
3891;SDS011;1961;48.194;16.370;2022-11-20T08:16:41;72.68;;;21.65;;
3891;SDS011;1961;48.194;16.370;2022-11-20T08:19:08;70.25;;;23.50;;
3891;SDS011;1961;48.194;16.370;2022-11-20T08:21:34;69.25;;;21.35;;
3891;SDS011;1961;48.194;16.370;2022-11-20T08:24:01;71.28;;;21.58;;
3891;SDS011;1961;48.194;16.370;2022-11-20T08:26:27;71.25;;;21.77;;
3891;SDS011;1961;48.194;16.370;2022-11-20T08:28:54;72.57;;;20.17;;
3891;SDS011;1961;48.194;16.370;2022-11-20T08:31:20;68.38;;;20.98;;
3891;SDS011;1961;48.194;16.370;2022-11-20T08:33:47;70.18;;;23.15;;
3891;SDS011;1961;48.194;16.370;2022-11-20T08:36:16;77.00;;;24.45;;
3891;SDS011;1961;48.194;16.370;2022-11-20T08:38:52;73.03;;;22.85;;
3891;SDS011;1961;48.194;16.370;2022-11-20T08:41:19;74.30;;;21.60;;
3891;SDS011;1961;48.194;16.370;2022-11-20T08:46:21;71.80;;;22.80;;
3891;SDS011;1961;48.194;16.370;2022-11-20T08:48:47;69.80;;;21.95;;
3891;SDS011;1961;48.194;16.370;2022-11-20T08:51:14;74.38;;;24.33;;
3891;SDS011;1961;48.194;16.370;2022-11-20T08:53:40;75.63;;;23.75;;
3891;SDS011;1961;48.194;16.370;2022-11-20T08:56:06;71.45;;;23.05;;
3891;SDS011;1961;48.194;16.370;2022-11-20T08:58:34;73.93;;;22.77;;
3891;SDS011;1961;48.194;16.370;2022-11-20T09:01:01;76.82;;;23.40;;
3891;SDS011;1961;48.194;16.370;2022-11-20T09:03:27;67.78;;;21.77;;
3891;SDS011;1961;48.194;16.370;2022-11-20T09:06:00;77.05;;;25.00;;
3891;SDS011;1961;48.194;16.370;2022-11-20T09:08:27;79.30;;;24.60;;
3891;SDS011;1961;48.194;16.370;2022-11-20T09:10:54;70.88;;;23.55;;
3891;SDS011;1961;48.194;16.370;2022-11-20T09:13:21;72.88;;;22.25;;
3891;SDS011;1961;48.194;16.370;2022-11-20T09:15:52;70.10;;;22.75;;
3891;SDS011;1961;48.194;16.370;2022-11-20T09:18:19;74.22;;;23.38;;
3891;SDS011;1961;48.194;16.370;2022-11-20T09:20:45;73.43;;;24.38;;
3891;SDS011;1961;48.194;16.370;2022-11-20T09:23:11;74.75;;;23.10;;
3891;SDS011;1961;48.194;16.370;2022-11-20T09:25:37;70.57;;;22.48;;
3891;SDS011;1961;48.194;16.370;2022-11-20T09:28:03;72.18;;;23.63;;
3891;SDS011;1961;48.194;16.370;2022-11-20T09:30:30;85.47;;;31.15;;
3891;SDS011;1961;48.194;16.370;2022-11-20T09:32:57;70.40;;;23.92;;
3891;SDS011;1961;48.194;16.370;2022-11-20T09:35:23;78.00;;;24.63;;
3891;SDS011;1961;48.194;16.370;2022-11-20T09:37:49;73.47;;;22.90;;
3891;SDS011;1961;48.194;16.370;2022-11-20T09:40:20;79.05;;;25.58;;
3891;SDS011;1961;48.194;16.370;2022-11-20T09:42:53;76.95;;;23.25;;
3891;SDS011;1961;48.194;16.370;2022-11-20T09:45:24;80.07;;;25.95;;
3891;SDS011;1961;48.194;16.370;2022-11-20T09:50:49;73.00;;;23.85;;
3891;SDS011;1961;48.194;16.370;2022-11-20T09:55:48;76.35;;;23.73;;
3891;SDS011;1961;48.194;16.370;2022-11-20T10:01:09;75.32;;;25.55;;
3891;SDS011;1961;48.194;16.370;2022-11-20T10:03:38;79.35;;;26.58;;
3891;SDS011;1961;48.194;16.370;2022-11-20T10:06:05;78.50;;;25.95;;
3891;SDS011;1961;48.194;16.370;2022-11-20T10:17:02;73.05;;;22.70;;
3891;SDS011;1961;48.194;16.370;2022-11-20T10:19:37;71.57;;;24.15;;
3891;SDS011;1961;48.194;16.370;2022-11-20T10:24:37;78.15;;;24.80;;
3891;SDS011;1961;48.194;16.370;2022-11-20T10:29:59;72.60;;;23.85;;
3891;SDS011;1961;48.194;16.370;2022-11-20T10:32:29;75.72;;;25.00;;
3891;SDS011;1961;48.194;16.370;2022-11-20T10:35:01;78.03;;;24.73;;
3891;SDS011;1961;48.194;16.370;2022-11-20T10:37:29;72.75;;;22.95;;
3891;SDS011;1961;48.194;16.370;2022-11-20T10:39:59;77.05;;;24.45;;
3891;SDS011;1961;48.194;16.370;2022-11-20T10:42:45;79.85;;;26.63;;
3891;SDS011;1961;48.194;16.370;2022-11-20T10:45:19;103.78;;;35.55;;
3891;SDS011;1961;48.194;16.370;2022-11-20T10:47:47;77.65;;;25.67;;
3891;SDS011;1961;48.194;16.370;2022-11-20T10:50:15;75.35;;;24.95;;
3891;SDS011;1961;48.194;16.370;2022-11-20T10:55:20;78.93;;;26.45;;
3891;SDS011;1961;48.194;16.370;2022-11-20T11:00:17;81.22;;;25.25;;
3891;SDS011;1961;48.194;16.370;2022-11-20T11:02:46;73.90;;;23.55;;
3891;SDS011;1961;48.194;16.370;2022-11-20T11:07:49;72.72;;;23.92;;
3891;SDS011;1961;48.194;16.370;2022-11-20T11:10:17;74.85;;;24.15;;
3891;SDS011;1961;48.194;16.370;2022-11-20T11:12:45;73.63;;;23.48;;
3891;SDS011;1961;48.194;16.370;2022-11-20T11:15:14;72.43;;;22.90;;
3891;SDS011;1961;48.194;16.370;2022-11-20T11:17:46;75.97;;;25.98;;
3891;SDS011;1961;48.194;16.370;2022-11-20T11:20:21;76.78;;;25.52;;
3891;SDS011;1961;48.194;16.370;2022-11-20T11:22:50;77.30;;;24.45;;
3891;SDS011;1961;48.194;16.370;2022-11-20T11:25:22;75.40;;;24.55;;
3891;SDS011;1961;48.194;16.370;2022-11-20T11:27:48;77.13;;;24.50;;
3891;SDS011;1961;48.194;16.370;2022-11-20T11:30:17;90.30;;;26.92;;
3891;SDS011;1961;48.194;16.370;2022-11-20T11:32:43;83.53;;;24.60;;
3891;SDS011;1961;48.194;16.370;2022-11-20T11:35:23;75.85;;;24.42;;
3891;SDS011;1961;48.194;16.370;2022-11-20T11:37:49;74.05;;;23.48;;
3891;SDS011;1961;48.194;16.370;2022-11-20T11:40:17;73.07;;;24.63;;
3891;SDS011;1961;48.194;16.370;2022-11-20T11:42:49;70.10;;;22.17;;
3891;SDS011;1961;48.194;16.370;2022-11-20T11:45:17;76.57;;;24.80;;
3891;SDS011;1961;48.194;16.370;2022-11-20T11:52:41;74.40;;;27.58;;
3891;SDS011;1961;48.194;16.370;2022-11-20T11:55:09;72.50;;;26.00;;
3891;SDS011;1961;48.194;16.370;2022-11-20T11:57:43;75.05;;;23.75;;
3891;SDS011;1961;48.194;16.370;2022-11-20T12:00:14;71.18;;;23.52;;
3891;SDS011;1961;48.194;16.370;2022-11-20T12:07:45;75.55;;;23.80;;
3891;SDS011;1961;48.194;16.370;2022-11-20T12:10:14;77.10;;;25.30;;
3891;SDS011;1961;48.194;16.370;2022-11-20T12:12:42;76.43;;;25.00;;
3891;SDS011;1961;48.194;16.370;2022-11-20T12:15:10;80.00;;;25.38;;
3891;SDS011;1961;48.194;16.370;2022-11-20T12:17:39;73.50;;;24.65;;
3891;SDS011;1961;48.194;16.370;2022-11-20T12:20:13;76.10;;;24.50;;
3891;SDS011;1961;48.194;16.370;2022-11-20T12:22:52;79.57;;;26.17;;
3891;SDS011;1961;48.194;16.370;2022-11-20T12:25:22;91.07;;;27.02;;
3891;SDS011;1961;48.194;16.370;2022-11-20T12:30:28;73.88;;;25.08;;
3891;SDS011;1961;48.194;16.370;2022-11-20T12:40:35;77.20;;;24.90;;
3891;SDS011;1961;48.194;16.370;2022-11-20T12:43:24;76.15;;;25.20;;
3891;SDS011;1961;48.194;16.370;2022-11-20T13:01:49;71.28;;;24.35;;
3891;SDS011;1961;48.194;16.370;2022-11-20T13:05:00;76.15;;;24.42;;
3891;SDS011;1961;48.194;16.370;2022-11-20T13:07:07;78.82;;;25.92;;
3891;SDS011;1961;48.194;16.370;2022-11-20T13:09:33;77.60;;;26.95;;
3891;SDS011;1961;48.194;16.370;2022-11-20T13:19:49;79.72;;;25.70;;
3891;SDS011;1961;48.194;16.370;2022-11-20T13:22:25;76.40;;;25.98;;
3891;SDS011;1961;48.194;16.370;2022-11-20T13:24:51;73.97;;;26.30;;
3891;SDS011;1961;48.194;16.370;2022-11-20T13:27:19;78.47;;;26.08;;
3891;SDS011;1961;48.194;16.370;2022-11-20T13:29:47;72.97;;;23.80;;
3891;SDS011;1961;48.194;16.370;2022-11-20T13:32:25;72.32;;;24.48;;
3891;SDS011;1961;48.194;16.370;2022-11-20T13:34:58;78.72;;;25.33;;
3891;SDS011;1961;48.194;16.370;2022-11-20T13:37:35;79.07;;;24.90;;
3891;SDS011;1961;48.194;16.370;2022-11-20T13:40:11;70.57;;;24.10;;
3891;SDS011;1961;48.194;16.370;2022-11-20T13:42:45;76.82;;;25.55;;
3891;SDS011;1961;48.194;16.370;2022-11-20T13:45:28;74.50;;;25.35;;
3891;SDS011;1961;48.194;16.370;2022-11-20T13:47:55;76.53;;;25.17;;
3891;SDS011;1961;48.194;16.370;2022-11-20T13:50:31;81.68;;;24.90;;
3891;SDS011;1961;48.194;16.370;2022-11-20T13:55:48;73.82;;;24.27;;
3891;SDS011;1961;48.194;16.370;2022-11-20T13:58:20;76.60;;;24.55;;
3891;SDS011;1961;48.194;16.370;2022-11-20T14:01:10;71.65;;;24.23;;
3891;SDS011;1961;48.194;16.370;2022-11-20T14:03:37;78.10;;;26.70;;
3891;SDS011;1961;48.194;16.370;2022-11-20T14:06:05;72.90;;;25.15;;
3891;SDS011;1961;48.194;16.370;2022-11-20T14:11:15;74.60;;;24.40;;
3891;SDS011;1961;48.194;16.370;2022-11-20T14:13:59;76.57;;;26.02;;
3891;SDS011;1961;48.194;16.370;2022-11-20T14:16:26;73.10;;;25.88;;
3891;SDS011;1961;48.194;16.370;2022-11-20T14:18:54;76.05;;;25.50;;
3891;SDS011;1961;48.194;16.370;2022-11-20T14:21:22;72.70;;;25.30;;
3891;SDS011;1961;48.194;16.370;2022-11-20T14:23:48;74.03;;;25.92;;
3891;SDS011;1961;48.194;16.370;2022-11-20T14:26:16;80.22;;;27.67;;
3891;SDS011;1961;48.194;16.370;2022-11-20T14:28:47;83.38;;;27.75;;
3891;SDS011;1961;48.194;16.370;2022-11-20T14:31:18;77.57;;;26.45;;
3891;SDS011;1961;48.194;16.370;2022-11-20T14:33:47;91.03;;;27.20;;
3891;SDS011;1961;48.194;16.370;2022-11-20T14:36:17;80.95;;;26.83;;
3891;SDS011;1961;48.194;16.370;2022-11-20T14:38:44;76.75;;;26.08;;
3891;SDS011;1961;48.194;16.370;2022-11-20T14:41:21;83.25;;;25.27;;
3891;SDS011;1961;48.194;16.370;2022-11-20T14:43:53;79.35;;;26.77;;
3891;SDS011;1961;48.194;16.370;2022-11-20T14:46:21;79.85;;;25.40;;
3891;SDS011;1961;48.194;16.370;2022-11-20T14:48:49;77.43;;;26.38;;
3891;SDS011;1961;48.194;16.370;2022-11-20T14:51:30;82.60;;;26.80;;
3891;SDS011;1961;48.194;16.370;2022-11-20T14:54:10;74.07;;;24.80;;
3891;SDS011;1961;48.194;16.370;2022-11-20T14:56:36;73.53;;;25.25;;
3891;SDS011;1961;48.194;16.370;2022-11-20T14:59:02;74.82;;;25.20;;
3891;SDS011;1961;48.194;16.370;2022-11-20T15:01:30;85.15;;;24.63;;
3891;SDS011;1961;48.194;16.370;2022-11-20T15:04:09;74.18;;;25.40;;
3891;SDS011;1961;48.194;16.370;2022-11-20T15:06:37;78.72;;;25.23;;
3891;SDS011;1961;48.194;16.370;2022-11-20T15:09:04;74.63;;;25.63;;
3891;SDS011;1961;48.194;16.370;2022-11-20T15:11:32;74.82;;;24.58;;
3891;SDS011;1961;48.194;16.370;2022-11-20T15:14:03;76.70;;;24.80;;
3891;SDS011;1961;48.194;16.370;2022-11-20T15:16:30;76.85;;;25.40;;
3891;SDS011;1961;48.194;16.370;2022-11-20T15:18:56;72.72;;;26.17;;
3891;SDS011;1961;48.194;16.370;2022-11-20T15:21:23;74.15;;;26.27;;
3891;SDS011;1961;48.194;16.370;2022-11-20T15:23:50;74.28;;;24.88;;
3891;SDS011;1961;48.194;16.370;2022-11-20T15:26:26;79.70;;;27.38;;
3891;SDS011;1961;48.194;16.370;2022-11-20T15:28:53;76.72;;;24.67;;
3891;SDS011;1961;48.194;16.370;2022-11-20T15:31:21;73.25;;;24.75;;
3891;SDS011;1961;48.194;16.370;2022-11-20T15:33:48;77.07;;;26.92;;
3891;SDS011;1961;48.194;16.370;2022-11-20T15:36:15;78.45;;;26.38;;
3891;SDS011;1961;48.194;16.370;2022-11-20T15:38:41;78.07;;;27.00;;
3891;SDS011;1961;48.194;16.370;2022-11-20T15:41:07;71.38;;;24.65;;
3891;SDS011;1961;48.194;16.370;2022-11-20T15:43:35;79.68;;;28.63;;
3891;SDS011;1961;48.194;16.370;2022-11-20T15:46:06;84.85;;;26.38;;
3891;SDS011;1961;48.194;16.370;2022-11-20T15:48:36;88.13;;;29.02;;
3891;SDS011;1961;48.194;16.370;2022-11-20T15:51:11;76.80;;;28.10;;
3891;SDS011;1961;48.194;16.370;2022-11-20T15:53:41;79.57;;;28.60;;
3891;SDS011;1961;48.194;16.370;2022-11-20T15:56:11;75.82;;;26.05;;
3891;SDS011;1961;48.194;16.370;2022-11-20T15:58:38;102.50;;;29.10;;
3891;SDS011;1961;48.194;16.370;2022-11-20T16:01:04;89.88;;;30.40;;
3891;SDS011;1961;48.194;16.370;2022-11-20T16:03:31;86.93;;;29.50;;